createdAt,value
2022-10-28T00:01:12.908Z,84.40
2022-10-28T00:03:40.838Z,84.80
2022-10-28T00:06:09.023Z,90.30
2022-10-28T00:08:35.671Z,94.10
2022-10-28T00:11:10.584Z,95.00
2022-10-28T00:13:37.754Z,95.10
2022-10-28T00:16:08.554Z,94.60
2022-10-28T00:18:35.569Z,94.90
2022-10-28T00:21:03.338Z,93.90
2022-10-28T00:23:30.051Z,93.10
2022-10-28T00:26:03.326Z,91.70
2022-10-28T00:28:29.945Z,90.60
2022-10-28T00:30:56.606Z,90.20
2022-10-28T00:33:23.282Z,90.80
2022-10-28T00:35:49.939Z,92.60
2022-10-28T00:38:16.572Z,94.10
2022-10-28T00:40:43.248Z,94.70
2022-10-28T00:43:11.874Z,96.50
2022-10-28T00:45:38.870Z,97.50
2022-10-28T00:48:06.246Z,98.20
2022-10-28T00:50:44.991Z,98.40
2022-10-28T00:53:22.962Z,98.90
2022-10-28T00:55:49.837Z,98.70
2022-10-28T00:58:17.604Z,99.30
2022-10-28T01:00:44.418Z,99.00
2022-10-28T01:03:11.062Z,98.60
2022-10-28T01:05:39.784Z,97.40
2022-10-28T01:08:06.851Z,97.70
2022-10-28T01:10:43.922Z,95.80
2022-10-28T01:13:22.890Z,95.30
2022-10-28T01:15:52.549Z,95.00
2022-10-28T01:18:33.952Z,95.00
2022-10-28T01:21:00.565Z,95.30
2022-10-28T01:23:27.189Z,92.70
2022-10-28T01:26:08.964Z,91.50
2022-10-28T01:28:44.708Z,91.40
2022-10-28T01:31:15.688Z,91.20
2022-10-28T01:34:01.695Z,90.70
2022-10-28T01:36:37.856Z,90.20
2022-10-28T01:39:20.140Z,89.90
2022-10-28T01:42:19.255Z,89.60
2022-10-28T01:44:53.929Z,88.70
2022-10-28T01:47:25.782Z,91.00
2022-10-28T01:50:07.747Z,93.20
2022-10-28T01:52:34.437Z,95.40
2022-10-28T01:55:20.532Z,96.40
2022-10-28T01:57:49.007Z,98.90
2022-10-28T02:00:15.949Z,98.70
2022-10-28T02:02:42.925Z,99.00
2022-10-28T02:05:28.477Z,99.90
2022-10-28T02:07:58.945Z,99.90
2022-10-28T02:10:34.131Z,99.90
2022-10-28T02:13:02.565Z,99.90
2022-10-28T02:15:29.213Z,99.90
2022-10-28T02:18:14.423Z,99.90
2022-10-28T02:20:47.047Z,99.90
2022-10-28T02:23:13.704Z,99.90
2022-10-28T02:25:58.605Z,99.90
2022-10-28T02:28:32.750Z,99.90
2022-10-28T02:31:05.850Z,99.90
2022-10-28T02:33:34.979Z,99.90
2022-10-28T02:36:10.627Z,99.90
2022-10-28T02:38:43.570Z,99.90
2022-10-28T02:41:19.054Z,99.90
2022-10-28T02:43:47.448Z,99.90
2022-10-28T02:46:14.780Z,99.90
2022-10-28T02:48:44.045Z,99.90
2022-10-28T02:51:18.431Z,99.90
2022-10-28T02:53:50.499Z,99.90
2022-10-28T02:56:18.060Z,99.90
2022-10-28T02:58:45.418Z,99.90
2022-10-28T03:01:12.311Z,99.90
2022-10-28T03:03:39.033Z,99.90
2022-10-28T03:06:05.859Z,99.90
2022-10-28T03:08:32.624Z,99.90
2022-10-28T03:10:59.399Z,99.90
2022-10-28T03:13:26.065Z,99.90
2022-10-28T03:15:52.780Z,99.90
2022-10-28T03:18:19.441Z,99.90
2022-10-28T03:20:47.013Z,99.90
2022-10-28T03:23:13.726Z,99.90
2022-10-28T03:25:40.506Z,99.90
2022-10-28T03:28:07.232Z,99.90
2022-10-28T03:30:33.996Z,99.40
2022-10-28T03:33:00.655Z,98.20
2022-10-28T03:35:27.364Z,97.50
2022-10-28T03:37:54.098Z,98.50
2022-10-28T03:40:20.755Z,99.90
2022-10-28T03:42:47.439Z,99.90
2022-10-28T03:45:14.247Z,99.90
2022-10-28T03:47:40.986Z,99.90
2022-10-28T03:50:07.868Z,99.90
2022-10-28T03:52:34.583Z,99.90
2022-10-28T03:55:01.245Z,99.90
2022-10-28T03:57:30.628Z,99.90
2022-10-28T03:59:57.431Z,98.80
2022-10-28T04:02:24.374Z,98.00
2022-10-28T04:04:51.071Z,97.20
2022-10-28T04:07:17.758Z,97.50
2022-10-28T04:09:44.454Z,99.40
2022-10-28T04:12:11.489Z,99.60
2022-10-28T04:14:38.206Z,98.60
2022-10-28T04:17:04.879Z,98.20
2022-10-28T04:19:31.552Z,97.30
2022-10-28T04:21:58.306Z,95.60
2022-10-28T04:24:24.970Z,93.90
2022-10-28T04:26:51.666Z,92.60
2022-10-28T04:29:19.314Z,91.50
2022-10-28T04:31:48.660Z,90.70
2022-10-28T04:34:18.064Z,90.40
2022-10-28T04:36:44.774Z,91.50
2022-10-28T04:39:11.440Z,93.00
2022-10-28T04:41:38.088Z,94.50
2022-10-28T04:44:04.837Z,95.90
2022-10-28T04:46:31.465Z,97.00
2022-10-28T04:48:58.142Z,97.00
2022-10-28T04:51:24.835Z,95.90
2022-10-28T04:53:51.543Z,93.70
2022-10-28T04:56:18.213Z,91.70
2022-10-28T04:58:44.881Z,91.10
2022-10-28T05:01:11.594Z,90.60
2022-10-28T05:03:38.500Z,91.00
2022-10-28T05:06:05.327Z,92.20
2022-10-28T05:08:32.001Z,93.30
2022-10-28T05:10:58.700Z,94.40
2022-10-28T05:13:25.438Z,94.80
2022-10-28T05:15:52.090Z,95.30
2022-10-28T05:18:18.829Z,95.70
2022-10-28T05:20:45.664Z,97.10
2022-10-28T05:23:12.339Z,97.30
2022-10-28T05:25:38.989Z,95.50
2022-10-28T05:28:05.721Z,94.20
2022-10-28T05:30:32.435Z,92.40
2022-10-28T05:33:01.003Z,91.10
2022-10-28T05:35:28.691Z,90.20
2022-10-28T05:37:55.440Z,89.50
2022-10-28T05:40:22.079Z,89.30
2022-10-28T05:42:48.746Z,89.20
2022-10-28T05:45:15.876Z,90.90
2022-10-28T05:47:44.095Z,92.10
2022-10-28T05:50:11.305Z,93.40
2022-10-28T05:52:38.001Z,95.10
2022-10-28T05:55:05.244Z,96.00
2022-10-28T05:57:35.762Z,96.40
2022-10-28T06:00:02.695Z,96.20
2022-10-28T06:02:29.343Z,95.30
2022-10-28T06:04:56.023Z,95.50
2022-10-28T06:07:24.568Z,95.00
2022-10-28T06:09:51.341Z,93.40
2022-10-28T06:12:16.517Z,92.30
2022-10-28T06:14:43.166Z,91.50
2022-10-28T06:17:09.793Z,90.30
2022-10-28T06:19:36.504Z,88.80
2022-10-28T06:22:03.161Z,87.60
2022-10-28T06:24:29.802Z,85.40
2022-10-28T06:26:56.490Z,84.00
2022-10-28T06:29:23.190Z,84.90
2022-10-28T06:31:49.869Z,83.70
2022-10-28T06:34:16.589Z,82.90
2022-10-28T06:36:43.281Z,82.70
2022-10-28T06:39:09.930Z,82.90
2022-10-28T06:41:36.617Z,81.60
2022-10-28T06:44:03.385Z,81.50
2022-10-28T06:46:30.262Z,81.80
2022-10-28T06:48:58.506Z,81.60
2022-10-28T06:51:25.167Z,81.30
2022-10-28T06:53:52.092Z,81.20
2022-10-28T06:56:19.083Z,90.40
2022-10-28T06:58:50.765Z,87.60
2022-10-28T07:01:17.753Z,83.90
2022-10-28T07:03:44.545Z,81.10
2022-10-28T07:06:11.502Z,81.20
2022-10-28T07:08:38.259Z,79.40
2022-10-28T07:11:05.104Z,79.90
2022-10-28T07:13:31.749Z,79.60
2022-10-28T07:15:59.474Z,80.90
2022-10-28T07:18:27.373Z,82.90
2022-10-28T07:20:54.148Z,86.00
2022-10-28T07:23:21.024Z,89.00
2022-10-28T07:25:55.293Z,90.70
2022-10-28T07:28:22.755Z,91.80
2022-10-28T07:30:49.635Z,90.50
2022-10-28T07:33:16.553Z,90.00
2022-10-28T07:35:44.335Z,89.70
2022-10-28T07:38:11.318Z,91.20
2022-10-28T07:40:38.276Z,92.20
2022-10-28T07:43:05.009Z,92.30
2022-10-28T07:45:31.669Z,92.10
2022-10-28T07:47:58.372Z,90.80
2022-10-28T07:50:25.036Z,90.00
2022-10-28T07:52:51.966Z,87.20
2022-10-28T07:55:21.524Z,85.60
2022-10-28T07:57:48.621Z,82.70
2022-10-28T08:00:15.713Z,92.70
2022-10-28T08:02:42.541Z,94.00
2022-10-28T08:05:09.680Z,91.50
2022-10-28T08:07:38.655Z,90.00
2022-10-28T08:10:06.480Z,87.80
2022-10-28T08:12:33.227Z,77.00
2022-10-28T08:14:59.908Z,73.90
2022-10-28T08:17:26.613Z,73.40
2022-10-28T08:19:53.248Z,71.90
2022-10-28T08:22:19.917Z,68.70
2022-10-28T08:24:46.587Z,67.00
2022-10-28T08:27:13.320Z,66.90
2022-10-28T08:29:39.975Z,70.30
2022-10-28T08:32:09.543Z,71.50
2022-10-28T08:34:39.264Z,71.00
2022-10-28T08:37:09.414Z,72.60
2022-10-28T08:39:36.143Z,76.20
2022-10-28T08:42:19.968Z,78.50
2022-10-28T08:44:52.912Z,80.20
2022-10-28T08:47:28.544Z,78.40
2022-10-28T08:49:56.696Z,74.40
2022-10-28T08:52:23.579Z,70.00
2022-10-28T08:55:06.193Z,69.00
2022-10-28T08:57:34.992Z,72.00
2022-10-28T09:00:03.251Z,75.10
2022-10-28T09:02:33.222Z,73.00
2022-10-28T09:05:08.129Z,72.60
2022-10-28T09:07:36.818Z,75.10
2022-10-28T09:10:04.638Z,71.40
2022-10-28T09:12:48.993Z,66.00
2022-10-28T09:15:51.101Z,62.90
2022-10-28T09:18:19.195Z,62.20
2022-10-28T09:20:45.859Z,60.90
2022-10-28T09:23:32.429Z,63.00
2022-10-28T09:25:59.066Z,64.10
2022-10-28T09:28:46.544Z,63.10
2022-10-28T09:31:13.240Z,62.50
2022-10-28T09:33:46.215Z,64.60
2022-10-28T09:36:15.097Z,65.00
2022-10-28T09:38:42.520Z,65.30
2022-10-28T09:41:21.497Z,66.40
2022-10-28T09:43:49.573Z,61.60
2022-10-28T09:46:17.090Z,61.30
2022-10-28T09:48:48.329Z,58.20
2022-10-28T09:51:21.270Z,58.80
2022-10-28T09:53:50.985Z,57.40
2022-10-28T09:56:17.672Z,57.30
2022-10-28T09:58:46.652Z,58.00
2022-10-28T10:01:13.974Z,59.10
2022-10-28T10:03:41.813Z,59.80
2022-10-28T10:06:14.074Z,59.60
2022-10-28T10:08:41.783Z,59.70
2022-10-28T10:11:15.321Z,59.60
2022-10-28T10:13:43.406Z,62.20
2022-10-28T10:16:15.032Z,60.10
2022-10-28T10:18:46.877Z,58.30
2022-10-28T10:21:14.594Z,59.10
2022-10-28T10:23:41.529Z,59.10
2022-10-28T10:26:12.463Z,57.80
2022-10-28T10:28:46.589Z,56.30
2022-10-28T10:31:18.772Z,56.40
2022-10-28T10:33:48.547Z,54.70
2022-10-28T10:36:17.430Z,54.50
2022-10-28T10:39:02.755Z,52.50
2022-10-28T10:41:44.653Z,53.30
2022-10-28T10:44:20.443Z,54.80
2022-10-28T10:46:47.775Z,53.00
2022-10-28T10:49:15.474Z,53.40
2022-10-28T10:51:52.154Z,53.50
2022-10-28T10:54:19.239Z,54.10
2022-10-28T10:56:45.964Z,51.20
2022-10-28T10:59:29.477Z,50.80
2022-10-28T11:01:57.088Z,51.50
2022-10-28T11:04:25.515Z,50.20
2022-10-28T11:06:56.456Z,50.60
2022-10-28T11:09:28.927Z,50.50
2022-10-28T11:11:56.389Z,49.30
2022-10-28T11:14:28.419Z,49.70
2022-10-28T11:16:58.987Z,49.20
2022-10-28T11:19:28.863Z,48.60
2022-10-28T11:22:01.432Z,48.40
2022-10-28T11:24:28.124Z,47.80
2022-10-28T11:26:57.542Z,47.00
2022-10-28T11:29:24.328Z,47.60
2022-10-28T11:31:59.982Z,51.20
2022-10-28T11:34:36.071Z,49.40
2022-10-28T11:37:09.519Z,48.60
2022-10-28T11:39:42.259Z,48.60
2022-10-28T11:42:14.869Z,48.60
2022-10-28T11:44:41.512Z,46.50
2022-10-28T11:47:17.262Z,47.40
2022-10-28T11:50:02.402Z,45.90
2022-10-28T11:52:29.136Z,47.10
2022-10-28T11:55:08.122Z,47.40
2022-10-28T11:57:46.651Z,46.40
2022-10-28T12:00:31.804Z,46.90
2022-10-28T12:02:59.119Z,47.80
2022-10-28T12:05:44.627Z,48.40
2022-10-28T12:08:11.336Z,47.90
2022-10-28T12:10:53.512Z,48.20
2022-10-28T12:13:32.202Z,49.70
2022-10-28T12:15:58.838Z,50.70
2022-10-28T12:18:30.890Z,50.50
2022-10-28T12:21:06.774Z,51.70
2022-10-28T12:23:34.803Z,52.70
2022-10-28T12:26:02.181Z,51.20
2022-10-28T12:28:40.962Z,51.50
2022-10-28T12:31:09.416Z,50.20
2022-10-28T12:33:39.327Z,50.40
2022-10-28T12:36:09.019Z,50.20
2022-10-28T12:38:40.527Z,51.10
2022-10-28T12:41:12.979Z,53.20
2022-10-28T12:43:42.368Z,54.00
2022-10-28T12:46:19.414Z,55.90
2022-10-28T12:48:51.382Z,56.40
2022-10-28T12:51:21.644Z,55.10
2022-10-28T12:54:06.353Z,54.10
2022-10-28T12:56:33.200Z,53.40
2022-10-28T12:59:18.606Z,52.80
2022-10-28T13:01:47.189Z,51.20
2022-10-28T13:04:14.350Z,53.00
2022-10-28T13:06:59.819Z,52.20
2022-10-28T13:09:33.287Z,51.20
2022-10-28T13:12:05.789Z,53.20
2022-10-28T13:14:51.142Z,52.80
2022-10-28T13:17:36.677Z,52.10
2022-10-28T13:20:18.642Z,51.40
2022-10-28T13:22:48.098Z,51.30
2022-10-28T13:25:23.851Z,51.10
2022-10-28T13:27:57.737Z,51.10
2022-10-28T13:30:25.262Z,52.10
2022-10-28T13:33:18.005Z,52.40
2022-10-28T13:35:44.981Z,54.10
2022-10-28T13:38:13.144Z,52.50
2022-10-28T13:40:39.819Z,53.40
2022-10-28T13:43:17.068Z,53.70
2022-10-28T13:45:54.390Z,52.40
2022-10-28T13:48:30.322Z,51.50
2022-10-28T13:51:26.324Z,52.20
2022-10-28T13:53:56.514Z,52.70
2022-10-28T13:56:35.556Z,52.60
2022-10-28T13:59:15.631Z,54.10
2022-10-28T14:02:01.646Z,53.40
2022-10-28T14:04:34.770Z,54.70
2022-10-28T14:07:01.491Z,54.60
2022-10-28T14:09:30.255Z,55.60
2022-10-28T14:12:08.927Z,55.90
2022-10-28T14:14:35.615Z,57.10
2022-10-28T14:17:02.359Z,56.70
2022-10-28T14:19:29.270Z,57.40
2022-10-28T14:22:08.796Z,56.90
2022-10-28T14:24:38.559Z,57.00
2022-10-28T14:27:15.415Z,58.90
2022-10-28T14:29:43.195Z,57.90
2022-10-28T14:32:28.726Z,58.80
2022-10-28T14:34:56.877Z,57.40
2022-10-28T14:37:28.435Z,56.50
2022-10-28T14:40:11.886Z,57.50
2022-10-28T14:45:30.867Z,58.90
2022-10-28T14:48:08.653Z,58.60
2022-10-28T14:50:38.812Z,58.20
2022-10-28T14:53:07.617Z,59.00
2022-10-28T14:55:35.060Z,58.50
2022-10-28T14:58:13.929Z,59.20
2022-10-28T15:00:42.892Z,58.20
2022-10-28T15:03:10.943Z,58.60
2022-10-28T15:05:37.739Z,58.70
2022-10-28T15:08:04.618Z,59.00
2022-10-28T15:10:33.917Z,58.70
2022-10-28T15:13:00.856Z,58.20
2022-10-28T15:15:31.677Z,57.70
2022-10-28T15:17:58.640Z,57.50
2022-10-28T15:20:35.258Z,57.50
2022-10-28T15:23:12.639Z,58.70
2022-10-28T15:25:39.416Z,59.90
2022-10-28T15:28:06.245Z,59.50
2022-10-28T15:30:34.797Z,60.20
2022-10-28T15:33:21.145Z,61.00
2022-10-28T15:35:48.042Z,60.90
2022-10-28T15:38:21.033Z,61.70
2022-10-28T15:40:47.883Z,62.40
2022-10-28T15:43:25.464Z,63.20
2022-10-28T15:45:52.236Z,65.30
2022-10-28T15:48:24.480Z,65.90
2022-10-28T15:51:09.730Z,65.90
2022-10-28T15:53:38.867Z,67.30
2022-10-28T15:56:14.607Z,67.40
2022-10-28T15:58:41.999Z,67.90
2022-10-28T16:01:10.329Z,68.40
2022-10-28T16:03:39.921Z,69.10
2022-10-28T16:06:07.576Z,69.80
2022-10-28T16:08:34.264Z,70.70
2022-10-28T16:11:03.225Z,71.30
2022-10-28T16:13:41.895Z,73.20
2022-10-28T16:16:10.648Z,72.50
2022-10-28T16:18:45.144Z,70.10
2022-10-28T16:21:20.109Z,68.20
2022-10-28T16:23:48.542Z,67.30
2022-10-28T16:26:15.541Z,66.90
2022-10-28T16:28:45.274Z,66.80
2022-10-28T16:31:16.828Z,67.40
2022-10-28T16:33:43.739Z,67.60
2022-10-28T16:36:10.685Z,68.10
2022-10-28T16:38:37.542Z,68.90
2022-10-28T16:41:05.271Z,69.70
2022-10-28T16:43:32.138Z,70.80
2022-10-28T16:45:59.910Z,71.80
2022-10-28T16:48:27.764Z,72.50
2022-10-28T16:50:55.853Z,73.40
2022-10-28T16:53:22.828Z,74.50
2022-10-28T16:55:49.627Z,75.50
2022-10-28T16:58:16.615Z,76.40
2022-10-28T17:00:43.654Z,77.70
2022-10-28T17:03:12.680Z,78.30
2022-10-28T17:05:39.389Z,79.00
2022-10-28T17:08:09.774Z,79.90
2022-10-28T17:10:37.225Z,81.60
2022-10-28T17:13:03.929Z,82.40
2022-10-28T17:15:30.617Z,84.10
2022-10-28T17:17:58.061Z,87.00
2022-10-28T17:20:24.782Z,86.80
2022-10-28T17:22:51.602Z,86.10
2022-10-28T17:25:18.732Z,85.00
2022-10-28T17:27:48.417Z,84.60
2022-10-28T17:30:16.667Z,83.80
2022-10-28T17:32:44.280Z,83.10
2022-10-28T17:35:11.038Z,82.40
2022-10-28T17:37:37.726Z,82.10
2022-10-28T17:40:04.746Z,82.20
2022-10-28T17:42:31.471Z,82.30
2022-10-28T17:44:58.142Z,82.00
2022-10-28T17:47:24.891Z,81.40
2022-10-28T17:49:51.539Z,81.00
2022-10-28T17:52:21.028Z,81.00
2022-10-28T17:54:47.691Z,81.20
2022-10-28T17:57:14.382Z,81.30
2022-10-28T17:59:41.056Z,81.70
2022-10-28T18:02:09.174Z,82.60
2022-10-28T18:04:36.201Z,83.30
2022-10-28T18:07:02.862Z,84.10
2022-10-28T18:09:31.764Z,85.80
2022-10-28T18:11:59.766Z,86.40
2022-10-28T18:14:27.410Z,85.10
2022-10-28T18:16:56.023Z,85.80
2022-10-28T18:19:22.957Z,84.10
2022-10-28T18:21:49.755Z,84.20
2022-10-28T18:24:17.698Z,84.90
2022-10-28T18:26:45.240Z,85.20
2022-10-28T18:29:13.154Z,85.40
2022-10-28T18:31:44.344Z,85.50
2022-10-28T18:34:11.363Z,86.00
2022-10-28T18:36:38.171Z,86.20
2022-10-28T18:39:06.878Z,87.10
2022-10-28T18:41:34.720Z,87.90
2022-10-28T18:44:04.991Z,89.30
2022-10-28T18:46:33.167Z,90.40
2022-10-28T18:49:03.000Z,90.30
2022-10-28T18:51:29.859Z,90.10
2022-10-28T18:53:57.466Z,90.20
2022-10-28T18:56:25.536Z,90.20
2022-10-28T18:58:52.453Z,90.50
2022-10-28T19:01:21.356Z,91.40
2022-10-28T19:03:50.831Z,90.90
2022-10-28T19:06:17.725Z,88.90
2022-10-28T19:08:44.519Z,88.20
2022-10-28T19:11:12.464Z,87.40
2022-10-28T19:13:40.734Z,86.90
2022-10-28T19:16:08.503Z,90.10
2022-10-28T19:18:36.695Z,90.50
2022-10-28T19:21:04.513Z,92.80
2022-10-28T19:23:31.910Z,92.20
2022-10-28T19:25:58.674Z,92.50
2022-10-28T19:28:25.669Z,93.50
2022-10-28T19:31:05.044Z,94.50
2022-10-28T19:33:32.353Z,95.30
2022-10-28T19:36:10.337Z,95.20
2022-10-28T19:38:37.733Z,96.80
2022-10-28T19:41:08.575Z,97.70
2022-10-28T19:43:35.676Z,98.20
2022-10-28T19:46:09.336Z,97.70
2022-10-28T19:48:36.726Z,97.90
2022-10-28T19:51:03.475Z,99.00
2022-10-28T19:53:30.558Z,99.90
2022-10-28T19:55:58.270Z,99.90
2022-10-28T19:58:25.315Z,99.90
2022-10-28T20:01:02.376Z,99.80
2022-10-28T20:03:33.057Z,99.90
2022-10-28T20:06:03.063Z,99.90
2022-10-28T20:08:29.801Z,99.90
2022-10-28T20:10:57.220Z,99.90
2022-10-28T20:13:23.894Z,99.90
2022-10-28T20:15:50.593Z,99.90
2022-10-28T20:18:17.265Z,99.90
2022-10-28T20:20:44.020Z,99.90
2022-10-28T20:23:10.710Z,99.90
2022-10-28T20:25:37.361Z,99.90
2022-10-28T20:28:04.137Z,99.90
2022-10-28T20:30:30.815Z,99.90
2022-10-28T20:32:57.471Z,99.90
2022-10-28T20:35:24.210Z,99.90
2022-10-28T20:37:53.317Z,99.90
2022-10-28T20:40:20.268Z,99.90
2022-10-28T20:42:48.103Z,99.90
2022-10-28T20:45:14.876Z,99.90
2022-10-28T20:47:41.584Z,99.90
2022-10-28T20:50:08.570Z,99.90
2022-10-28T20:52:35.308Z,99.90
2022-10-28T20:55:01.942Z,99.90
2022-10-28T20:57:28.625Z,99.90
2022-10-28T20:59:55.268Z,99.90
2022-10-28T21:02:22.053Z,99.90
2022-10-28T21:04:48.891Z,99.90
2022-10-28T21:07:15.554Z,99.90
2022-10-28T21:09:42.472Z,99.90
2022-10-28T21:12:12.143Z,99.90
2022-10-28T21:14:38.811Z,99.90
2022-10-28T21:17:05.468Z,99.90
2022-10-28T21:19:32.174Z,99.90
2022-10-28T21:21:58.916Z,99.90
2022-10-28T21:24:25.602Z,99.90
2022-10-28T21:26:52.325Z,99.90
2022-10-28T21:29:19.001Z,99.90
2022-10-28T21:31:45.639Z,99.90
2022-10-28T21:34:12.354Z,99.90
2022-10-28T21:36:39.004Z,99.90
2022-10-28T21:39:05.906Z,99.90
2022-10-28T21:41:32.644Z,99.90
2022-10-28T21:43:59.316Z,99.90
2022-10-28T21:46:25.962Z,99.90
2022-10-28T21:48:52.658Z,99.90
2022-10-28T21:51:19.335Z,99.90
2022-10-28T21:53:46.067Z,99.90
2022-10-28T21:56:17.763Z,99.90
2022-10-28T21:58:45.890Z,99.90
2022-10-28T22:01:17.034Z,99.90
2022-10-28T22:03:43.813Z,99.90
2022-10-28T22:06:10.885Z,99.90
2022-10-28T22:08:37.591Z,99.90
2022-10-28T22:11:08.339Z,99.90
2022-10-28T22:13:35.596Z,99.90
2022-10-28T22:16:04.312Z,99.90
2022-10-28T22:18:32.538Z,99.90
2022-10-28T22:21:19.463Z,99.90
2022-10-28T22:23:46.207Z,99.90
2022-10-28T22:26:14.387Z,99.90
2022-10-28T22:28:41.429Z,99.90
2022-10-28T22:31:10.062Z,99.90
2022-10-28T22:33:37.139Z,99.90
2022-10-28T22:36:08.669Z,99.90
2022-10-28T22:38:35.398Z,99.90
2022-10-28T22:41:02.973Z,99.90
2022-10-28T22:43:29.771Z,99.90
2022-10-28T22:45:57.423Z,99.90
2022-10-28T22:48:24.564Z,99.90
2022-10-28T22:50:51.804Z,99.90
2022-10-28T22:53:19.020Z,99.90
2022-10-28T22:55:46.909Z,99.90
2022-10-28T22:58:13.732Z,99.90
2022-10-28T23:00:40.403Z,99.90
2022-10-28T23:03:09.419Z,99.90
2022-10-28T23:05:36.145Z,99.90
2022-10-28T23:08:02.848Z,99.90
2022-10-28T23:10:29.671Z,99.90
2022-10-28T23:12:57.313Z,99.90
2022-10-28T23:15:24.336Z,99.90
2022-10-28T23:17:51.582Z,99.90
2022-10-28T23:20:23.006Z,99.90
2022-10-28T23:22:50.148Z,99.90
2022-10-28T23:25:17.152Z,99.90
2022-10-28T23:27:44.469Z,99.90
2022-10-28T23:30:12.179Z,99.90
2022-10-28T23:32:39.363Z,99.90
2022-10-28T23:35:06.693Z,99.90
2022-10-28T23:37:33.373Z,99.90
2022-10-28T23:40:00.073Z,99.90
2022-10-28T23:42:26.867Z,99.90
2022-10-28T23:44:53.508Z,99.90
2022-10-28T23:47:20.181Z,99.90
2022-10-28T23:49:46.877Z,99.90
2022-10-28T23:52:13.529Z,99.90
2022-10-28T23:54:40.193Z,99.90
2022-10-28T23:57:08.385Z,99.90
2022-10-28T23:59:35.074Z,99.90
